createdAt,value
2022-12-20T00:01:35.667Z,86.01
2022-12-20T00:04:06.720Z,86.60
2022-12-20T00:06:36.612Z,86.08
2022-12-20T00:09:08.950Z,86.24
2022-12-20T00:11:40.007Z,86.55
2022-12-20T00:14:08.610Z,86.42
2022-12-20T00:16:37.931Z,86.95
2022-12-20T00:19:08.423Z,86.98
2022-12-20T00:21:37.372Z,86.88
2022-12-20T00:24:08.094Z,86.89
2022-12-20T00:26:38.144Z,87.11
2022-12-20T00:29:07.186Z,86.97
2022-12-20T00:31:35.991Z,86.31
2022-12-20T00:34:04.669Z,85.05
2022-12-20T00:36:34.319Z,86.26
2022-12-20T00:39:03.096Z,85.80
2022-12-20T00:41:34.708Z,86.00
2022-12-20T00:44:03.223Z,86.77
2022-12-20T00:46:33.213Z,86.60
2022-12-20T00:49:01.528Z,86.44
2022-12-20T00:51:33.095Z,86.98
2022-12-20T00:54:01.016Z,86.45
2022-12-20T00:56:29.067Z,86.83
2022-12-20T00:59:00.378Z,86.56
2022-12-20T01:01:31.753Z,86.70
2022-12-20T01:04:00.439Z,87.02
2022-12-20T01:06:29.795Z,87.00
2022-12-20T01:08:58.688Z,86.93
2022-12-20T01:11:29.524Z,87.22
2022-12-20T01:14:03.906Z,86.73
2022-12-20T01:16:34.628Z,85.75
2022-12-20T01:19:02.888Z,85.96
2022-12-20T01:21:31.395Z,86.61
2022-12-20T01:23:59.558Z,86.57
2022-12-20T01:26:30.601Z,86.42
2022-12-20T01:29:01.745Z,86.36
2022-12-20T01:31:32.323Z,85.68
2022-12-20T01:34:01.282Z,85.78
2022-12-20T01:36:32.159Z,86.08
2022-12-20T01:39:02.041Z,86.28
2022-12-20T01:41:31.617Z,86.38
2022-12-20T01:44:03.484Z,86.22
2022-12-20T01:46:33.598Z,86.05
2022-12-20T01:49:06.139Z,87.11
2022-12-20T01:51:38.237Z,87.11
2022-12-20T01:54:11.648Z,86.88
2022-12-20T01:56:42.175Z,86.64
2022-12-20T01:59:13.872Z,86.30
2022-12-20T02:01:43.658Z,86.22
2022-12-20T02:04:11.831Z,86.90
2022-12-20T02:06:39.951Z,85.99
2022-12-20T02:09:09.095Z,86.61
2022-12-20T02:11:58.740Z,85.97
2022-12-20T02:14:40.837Z,86.50
2022-12-20T02:17:16.266Z,87.00
2022-12-20T02:20:08.527Z,87.07
2022-12-20T02:22:53.756Z,87.16
2022-12-20T02:25:44.170Z,87.03
2022-12-20T02:28:28.058Z,86.84
2022-12-20T02:31:01.742Z,86.70
2022-12-20T02:33:30.407Z,85.89
2022-12-20T02:35:58.373Z,86.75
2022-12-20T02:38:30.907Z,87.58
2022-12-20T02:41:03.394Z,87.83
2022-12-20T02:43:51.748Z,88.22
2022-12-20T02:46:24.755Z,87.67
2022-12-20T02:48:54.510Z,87.40
2022-12-20T02:51:24.624Z,88.26
2022-12-20T02:53:53.241Z,88.36
2022-12-20T02:56:26.288Z,87.28
2022-12-20T02:59:00.380Z,88.20
2022-12-20T03:01:33.087Z,88.61
2022-12-20T03:04:02.798Z,88.42
2022-12-20T03:06:31.254Z,88.35
2022-12-20T03:08:59.649Z,88.62
2022-12-20T03:11:27.703Z,88.44
2022-12-20T03:13:55.699Z,88.10
2022-12-20T03:16:23.686Z,88.61
2022-12-20T03:18:53.741Z,88.73
2022-12-20T03:21:21.765Z,88.01
2022-12-20T03:23:50.152Z,88.03
2022-12-20T03:26:18.164Z,87.00
2022-12-20T03:28:46.132Z,87.94
2022-12-20T03:31:14.189Z,88.46
2022-12-20T03:33:42.493Z,87.88
2022-12-20T03:36:12.256Z,87.49
2022-12-20T03:38:40.216Z,87.77
2022-12-20T03:41:08.325Z,87.44
2022-12-20T03:43:36.739Z,86.91
2022-12-20T03:46:04.925Z,87.65
2022-12-20T03:48:33.491Z,87.17
2022-12-20T03:51:01.509Z,87.57
2022-12-20T03:53:31.264Z,88.43
2022-12-20T03:55:59.365Z,88.59
2022-12-20T03:58:27.950Z,87.29
2022-12-20T04:00:57.410Z,88.54
2022-12-20T04:03:25.921Z,88.18
2022-12-20T04:05:53.997Z,87.96
2022-12-20T04:08:22.484Z,87.77
2022-12-20T04:11:09.167Z,88.49
2022-12-20T04:13:37.743Z,88.37
2022-12-20T04:16:06.214Z,88.34
2022-12-20T04:18:34.421Z,88.33
2022-12-20T04:21:02.614Z,88.52
2022-12-20T04:23:30.969Z,89.12
2022-12-20T04:26:00.557Z,89.14
2022-12-20T04:28:28.940Z,88.89
2022-12-20T04:30:57.562Z,88.79
2022-12-20T04:33:26.496Z,89.04
2022-12-20T04:35:55.210Z,88.95
2022-12-20T04:38:24.759Z,88.99
2022-12-20T04:40:54.003Z,88.95
2022-12-20T04:43:25.259Z,89.59
2022-12-20T04:45:56.363Z,89.21
2022-12-20T04:51:15.882Z,89.36
2022-12-20T04:53:49.648Z,89.84
2022-12-20T04:56:19.539Z,90.04
2022-12-20T04:58:50.987Z,90.47
2022-12-20T05:01:20.114Z,90.14
2022-12-20T05:03:49.692Z,90.26
2022-12-20T05:06:17.988Z,90.50
2022-12-20T05:08:46.653Z,90.41
2022-12-20T05:11:15.164Z,90.64
2022-12-20T05:13:43.370Z,90.79
2022-12-20T05:16:15.702Z,89.97
2022-12-20T05:18:49.470Z,89.86
2022-12-20T05:21:38.879Z,89.83
2022-12-20T05:24:47.361Z,89.34
2022-12-20T05:30:58.164Z,89.98
2022-12-20T08:12:27.317Z,88.51
2022-12-20T08:22:28.805Z,89.06
2022-12-20T08:33:19.423Z,87.50
2022-12-20T08:39:34.199Z,86.33
2022-12-20T09:31:35.129Z,86.77
2022-12-20T09:34:18.328Z,86.32
2022-12-20T09:59:52.314Z,85.93
2022-12-20T10:02:56.569Z,86.08
2022-12-20T11:33:58.453Z,85.21
2022-12-20T11:36:34.249Z,85.90
2022-12-20T11:39:11.653Z,86.64
2022-12-20T11:41:51.938Z,86.41
2022-12-20T11:44:33.458Z,86.34
2022-12-20T11:47:33.856Z,86.79
2022-12-20T11:50:22.525Z,86.36
2022-12-20T11:52:59.149Z,86.65
2022-12-20T11:55:30.433Z,86.45
2022-12-20T11:58:30.574Z,85.55
2022-12-20T12:01:05.773Z,86.65
2022-12-20T12:03:39.395Z,86.04
2022-12-20T12:06:34.650Z,86.00
2022-12-20T12:09:14.578Z,85.73
2022-12-20T12:14:53.624Z,85.80
2022-12-20T12:17:31.477Z,86.66
2022-12-20T12:20:19.402Z,86.67
2022-12-20T12:22:55.601Z,86.56
2022-12-20T12:25:24.952Z,87.20
2022-12-20T12:27:54.177Z,87.15
2022-12-20T12:30:27.032Z,86.77
2022-12-20T12:33:03.337Z,87.01
2022-12-20T12:35:56.073Z,86.33
2022-12-20T12:38:46.341Z,86.39
2022-12-20T12:41:32.906Z,86.50
2022-12-20T12:44:33.287Z,86.63
2022-12-20T12:47:22.585Z,86.20
2022-12-20T13:14:54.270Z,87.12
2022-12-20T13:17:50.605Z,86.91
2022-12-20T13:20:25.166Z,87.13
2022-12-20T13:23:17.275Z,86.88
2022-12-20T13:25:48.117Z,86.94
2022-12-20T13:28:47.396Z,87.17
2022-12-20T13:31:35.462Z,86.64
2022-12-20T13:34:04.236Z,87.42
2022-12-20T13:36:36.608Z,86.74
2022-12-20T13:39:35.672Z,86.79
2022-12-20T13:42:24.403Z,86.33
2022-12-20T13:44:55.579Z,86.61
2022-12-20T13:47:47.237Z,86.33
2022-12-20T13:50:40.687Z,86.04
2022-12-20T13:53:19.004Z,86.26
2022-12-20T13:55:47.443Z,85.97
2022-12-20T13:58:19.397Z,85.05
2022-12-20T14:00:48.743Z,86.01
2022-12-20T14:03:25.724Z,86.23
2022-12-20T14:05:59.816Z,85.82
2022-12-20T14:08:31.053Z,86.63
2022-12-20T14:11:11.056Z,86.95
2022-12-20T14:13:39.975Z,86.26
2022-12-20T14:16:15.837Z,85.88
2022-12-20T14:18:50.488Z,86.01
2022-12-20T14:21:20.134Z,86.25
2022-12-20T14:23:51.326Z,85.95
2022-12-20T14:26:25.987Z,85.50
2022-12-20T14:28:57.226Z,86.22
2022-12-20T14:31:27.925Z,84.85
2022-12-20T14:34:13.617Z,85.14
2022-12-20T14:36:44.742Z,85.83
2022-12-20T14:39:26.639Z,85.73
2022-12-20T14:41:59.960Z,85.62
2022-12-20T14:44:30.472Z,86.42
2022-12-20T14:47:00.292Z,85.74
2022-12-20T14:49:32.439Z,86.39
2022-12-20T14:52:14.687Z,85.73
2022-12-20T14:57:41.618Z,85.98
2022-12-20T15:00:17.781Z,86.00
2022-12-20T15:02:51.904Z,85.26
2022-12-20T15:05:49.652Z,85.45
2022-12-20T15:08:20.618Z,84.74
2022-12-20T15:10:53.444Z,84.93
2022-12-20T15:13:23.966Z,85.55
2022-12-20T15:15:52.730Z,85.27
2022-12-20T15:18:23.244Z,85.29
2022-12-20T15:21:02.218Z,85.66
2022-12-20T15:23:31.756Z,84.91
2022-12-20T15:26:00.502Z,84.57
2022-12-20T15:28:29.319Z,84.04
2022-12-20T15:30:57.913Z,84.21
2022-12-20T15:33:29.140Z,84.58
2022-12-20T15:36:01.335Z,84.90
2022-12-20T15:38:54.807Z,84.23
2022-12-20T15:41:22.009Z,84.51
2022-12-20T15:43:53.301Z,84.99
2022-12-20T15:46:21.392Z,83.83
2022-12-20T15:48:49.933Z,84.21
2022-12-20T15:51:25.828Z,84.25
2022-12-20T15:53:54.497Z,84.87
2022-12-20T15:56:24.359Z,84.55
2022-12-20T15:58:53.015Z,84.50
2022-12-20T16:01:24.129Z,84.30
2022-12-20T16:03:52.800Z,85.12
2022-12-20T16:06:23.176Z,84.77
2022-12-20T16:08:51.607Z,84.16
2022-12-20T16:11:22.672Z,83.17
2022-12-20T16:13:51.946Z,83.47
2022-12-20T16:16:21.978Z,83.64
2022-12-20T16:18:52.076Z,84.63
2022-12-20T16:21:23.279Z,84.02
2022-12-20T16:23:52.010Z,84.20
2022-12-20T16:26:22.329Z,84.09
2022-12-20T16:28:51.548Z,84.32
2022-12-20T16:31:25.559Z,84.26
2022-12-20T16:33:54.425Z,83.66
2022-12-20T16:36:24.532Z,83.97
2022-12-20T16:38:54.112Z,84.53
2022-12-20T16:41:24.980Z,83.35
2022-12-20T16:43:53.059Z,83.81
2022-12-20T16:46:23.943Z,83.89
2022-12-20T16:48:53.254Z,83.63
2022-12-20T16:51:28.537Z,83.78
2022-12-20T16:56:47.941Z,83.92
2022-12-20T16:59:20.178Z,84.15
2022-12-20T17:01:51.434Z,84.03
2022-12-20T17:04:20.632Z,84.30
2022-12-20T17:06:50.417Z,83.87
2022-12-20T17:12:17.030Z,83.88
2022-12-20T17:14:45.473Z,83.62
2022-12-20T17:17:13.671Z,84.50
2022-12-20T17:19:41.716Z,84.31
2022-12-20T17:22:24.116Z,84.21
2022-12-20T17:24:52.745Z,83.90
2022-12-20T17:27:21.592Z,83.67
2022-12-20T17:29:50.828Z,83.86
2022-12-20T17:32:22.650Z,82.96
2022-12-20T17:34:51.704Z,83.96
2022-12-20T17:37:22.509Z,83.25
2022-12-20T17:39:51.319Z,82.68
2022-12-20T17:42:20.748Z,82.97
2022-12-20T17:44:52.310Z,82.88
2022-12-20T17:47:21.354Z,82.64
2022-12-20T17:49:50.853Z,82.40
2022-12-20T17:55:02.917Z,82.63
2022-12-20T17:57:31.686Z,82.60
2022-12-20T17:59:59.984Z,83.10
2022-12-20T18:02:29.498Z,83.05
2022-12-20T18:04:57.887Z,82.89
2022-12-20T18:07:26.307Z,82.92
2022-12-20T18:09:58.456Z,82.35
2022-12-20T18:12:34.000Z,82.73
2022-12-20T18:15:07.872Z,81.94
2022-12-20T18:17:36.416Z,81.34
2022-12-20T18:20:05.954Z,82.37
2022-12-20T18:22:35.454Z,82.05
2022-12-20T18:25:07.251Z,81.43
2022-12-20T18:27:42.629Z,82.14
2022-12-20T18:30:13.658Z,81.87
2022-12-20T18:32:42.553Z,81.87
2022-12-20T18:35:12.429Z,82.40
2022-12-20T18:37:40.621Z,83.16
2022-12-20T18:40:10.411Z,83.38
2022-12-20T18:42:40.040Z,83.43
2022-12-20T18:45:11.254Z,83.32
2022-12-20T18:47:39.822Z,83.17
2022-12-20T18:50:12.244Z,83.34
2022-12-20T18:52:43.183Z,83.56
2022-12-20T18:55:14.717Z,83.09
2022-12-20T18:57:44.145Z,83.63
2022-12-20T19:00:13.480Z,84.15
2022-12-20T19:02:42.211Z,83.04
2022-12-20T19:05:10.802Z,83.63
2022-12-20T19:07:38.853Z,84.12
2022-12-20T19:10:08.512Z,83.75
2022-12-20T19:13:05.965Z,83.15
2022-12-20T19:15:37.404Z,83.15
2022-12-20T19:18:07.079Z,83.42
2022-12-20T19:20:37.089Z,82.66
2022-12-20T19:23:05.891Z,83.33
2022-12-20T19:25:35.679Z,83.28
2022-12-20T19:28:04.626Z,83.28
2022-12-20T19:30:33.433Z,83.85
2022-12-20T19:33:04.214Z,83.49
2022-12-20T19:36:01.488Z,83.47
2022-12-20T19:38:21.450Z,81.79
2022-12-20T19:40:55.246Z,83.25
2022-12-20T19:43:24.066Z,82.20
2022-12-20T19:45:52.470Z,83.04
2022-12-20T19:48:22.402Z,82.76
2022-12-20T19:50:50.923Z,82.61
2022-12-20T19:53:19.221Z,83.21
2022-12-20T19:55:54.219Z,83.62
2022-12-20T19:58:22.453Z,83.15
2022-12-20T20:00:50.815Z,83.63
2022-12-20T20:03:20.517Z,83.71
2022-12-20T20:05:50.378Z,83.30
2022-12-20T20:08:19.130Z,83.88
2022-12-20T20:10:49.358Z,83.38
2022-12-20T20:13:20.417Z,83.08
2022-12-20T20:15:52.254Z,83.72
2022-12-20T20:18:20.875Z,83.90
2022-12-20T20:20:50.511Z,83.36
2022-12-20T20:23:19.212Z,83.82
2022-12-20T20:25:48.050Z,83.63
2022-12-20T20:28:16.633Z,82.77
2022-12-20T20:30:46.884Z,82.95
2022-12-20T20:33:15.311Z,82.26
2022-12-20T20:35:46.931Z,83.30
2022-12-20T20:38:20.920Z,83.68
2022-12-20T20:40:49.288Z,82.85
2022-12-20T20:43:17.909Z,83.20
2022-12-20T20:45:46.727Z,83.15
2022-12-20T20:48:15.230Z,83.13
2022-12-20T20:50:44.620Z,82.96
2022-12-20T20:53:13.429Z,83.31
2022-12-20T20:55:42.933Z,83.53
2022-12-20T20:58:10.987Z,84.00
2022-12-20T21:00:39.490Z,83.82
2022-12-20T21:03:07.822Z,84.08
2022-12-20T21:06:22.010Z,83.67
2022-12-20T21:08:24.508Z,83.51
2022-12-20T21:10:54.331Z,82.95
2022-12-20T21:13:22.648Z,83.23
2022-12-20T21:15:51.198Z,83.14
2022-12-20T21:18:19.755Z,83.47
2022-12-20T21:20:48.827Z,82.91
2022-12-20T21:23:17.309Z,83.45
2022-12-20T21:25:45.268Z,83.65
2022-12-20T21:28:20.949Z,83.06
2022-12-20T21:30:50.019Z,83.20
2022-12-20T21:33:18.031Z,82.99
2022-12-20T21:35:51.701Z,82.22
2022-12-20T21:38:22.176Z,82.13
2022-12-20T21:40:50.124Z,82.37
2022-12-20T21:43:19.861Z,82.79
2022-12-20T21:45:51.622Z,82.32
2022-12-20T21:48:20.250Z,82.06
2022-12-20T21:50:48.212Z,82.51
2022-12-20T21:53:19.627Z,81.85
2022-12-20T21:55:48.026Z,82.57
2022-12-20T21:58:16.065Z,82.29
2022-12-20T22:00:50.913Z,82.35
2022-12-20T22:03:22.803Z,82.03
2022-12-20T22:05:52.615Z,82.33
2022-12-20T22:08:22.102Z,82.68
2022-12-20T22:10:50.929Z,83.02
2022-12-20T22:13:19.592Z,82.10
2022-12-20T22:15:51.288Z,81.89
2022-12-20T22:18:19.938Z,82.01
2022-12-20T22:20:48.115Z,82.54
2022-12-20T22:23:16.341Z,81.81
2022-12-20T22:25:45.490Z,82.22
2022-12-20T22:28:13.599Z,81.29
2022-12-20T22:30:42.786Z,81.77
2022-12-20T22:33:12.812Z,81.38
2022-12-20T22:35:41.395Z,82.22
2022-12-20T22:38:09.419Z,82.02
2022-12-20T22:40:38.081Z,82.49
2022-12-20T22:43:06.018Z,81.72
2022-12-20T22:45:34.650Z,81.38
2022-12-20T22:48:03.309Z,81.70
2022-12-20T22:50:33.147Z,81.79
2022-12-20T22:53:01.316Z,82.68
2022-12-20T22:55:29.902Z,83.55
2022-12-20T22:57:57.983Z,83.49
2022-12-20T23:00:33.120Z,84.18
2022-12-20T23:03:02.316Z,84.69
2022-12-20T23:05:30.480Z,85.16
2022-12-20T23:07:59.818Z,85.09
2022-12-20T23:10:45.891Z,84.94
2022-12-20T23:13:31.570Z,85.83
2022-12-20T23:16:00.051Z,85.48
2022-12-20T23:18:28.003Z,86.58
2022-12-20T23:21:14.198Z,86.08
2022-12-20T23:23:43.924Z,86.16
2022-12-20T23:26:12.320Z,86.64
2022-12-20T23:28:40.355Z,86.33
2022-12-20T23:31:09.530Z,86.70
2022-12-20T23:33:38.628Z,87.46
2022-12-20T23:36:07.627Z,88.24
2022-12-20T23:38:37.134Z,88.68
2022-12-20T23:41:10.441Z,88.61
2022-12-20T23:43:38.466Z,88.54
2022-12-20T23:46:08.701Z,88.69
2022-12-20T23:48:37.382Z,88.84
2022-12-20T23:51:06.515Z,88.71
2022-12-20T23:53:35.293Z,89.17
2022-12-20T23:56:06.114Z,88.91
2022-12-20T23:58:36.216Z,88.87
